Leeward Point Field
MUGM : now visible

Airfield :











YOU CAN JOIN US ON...

 
LOGIN :

Register | Disclaimer

   EN    FR    IT 

 









Legend :    VFR   Marginal VFR   IFR   Intensive IFR   Very Intensive IFR
Visi :
Ceiling :
>= 8 km
>= 3000ft
5 to 8 km
1000 to 3000 ft
1500m to 5 km
500 to 1000 ft
800 to 1500m
200 to 500 ft
< 800m
< 200 ft
Symbols :   Thunderstorms  Fog  Heavy snow  Heavy precipitations  Wind > 20 kt






- Airport Elevation : 56 ft
- IATA code : NBW


MUGM - Leeward Point Field

CURRENT METAR :
  • 291356Z 16003KT 10SM FEW025 BKN060 BKN100 28/25 A3000 RMK RAE1259 SLP159 VCSH NE P0000 T02830250

EXPIRED METARs :
  • 291256Z 35004KT 10SM -RA FEW025 BKN035 BKN250 28/24 A3001 RMK RAB47 SLP161 P0000 T02830244
  • 291156Z 35008KT 10SM SCT025 BKN035 BKN250 27/25 A2999 RMK SLP155 SHRA DSNT S T02720250 10272 20244 53016

TAF TAF MUGM
Valid from the 29 at 15:00 until the 30 at 15:00 UTC


2915/3015 12010KT 9999 VCSH SCT030 SCT100 BKN250 QNH2995INS
BECMG 2916/2918 14012KT 9999 VCTS FEW030CB FEW140 SCT250 QNH2992INS
BECMG 2921/2923 17010KT 9999 VCTS SCT030CB BKN120 BKN250 QNH2990INS
FM300100 24007KT 9999 FEW030 SCT120 BKN250 QNH2996INS
FM300300 35006KT 9999 FEW030 SCT120 BKN250 QNH2995INS
FM300700 35007KT 9999 VCTS SCT030CB BKN100 BKN250 QNH2994INS
FM301200 34006KT 9999 FEW030 FEW100 SCT250 QNH2997INS T32/2917Z T25/3011Z FN20068



MET'MAP, your aeronautical weather chart ! - Copyright ORBIFLY December 2007 - Disclaimer

ORBIFLY MET'MAP TEAM :

Programming & Development : Alexandra Zaïnal
Concept & original design : Baudouin d'Aumeries
Assistance for programming : Marc-Olivier Méhu
Technical & hardware support : Manuel Goepfert

Contact : metmap@orbifly.com




SOURCES & CREDITS :

   NOAA       Earth
Advisory